Time;durP1;ratioP1;P1;durP2;ratioP2;P2;SDS_P1;SDS_P2;PMS_P1;PMS_P2;Temp;Humidity;BMP_temperature;BMP_pressure;BME280_temperature;BME280_humidity;BME280_pressure;Samples;Min_cycle;Max_cycle;Signal;HPM_P1;HPM_P2
2021/01/13 00:00:22;;;;;;;1.52;0.88;;;6.00;81.40;;;;;;5094416;28;20024;-61
2021/01/13 00:02:48;;;;;;;8.35;2.30;;;5.90;80.70;;;;;;5093614;28;20498;-61
2021/01/13 00:05:14;;;;;;;8.00;1.73;;;5.90;80.60;;;;;;5093980;28;20063;-61
2021/01/13 00:07:43;;;;;;;2.67;1.33;;;5.90;80.40;;;;;;5094127;28;20036;-61
2021/01/13 00:10:10;;;;;;;0.50;0.50;;;5.80;80.80;;;;;;5093400;28;20090;-61
2021/01/13 00:12:39;;;;;;;4.50;1.35;;;5.70;81.20;;;;;;5094066;28;20518;-61
2021/01/13 00:15:06;;;;;;;3.80;0.70;;;5.70;81.60;;;;;;5093300;28;20032;-61
2021/01/13 00:17:32;;;;;;;6.22;1.35;;;5.60;81.80;;;;;;5093792;28;20507;-61
2021/01/13 00:19:57;;;;;;;4.90;0.98;;;5.60;81.90;;;;;;5094060;28;20032;-61
2021/01/13 00:22:24;;;;;;;11.07;1.75;;;5.60;82.00;;;;;;5093137;28;20024;-61
2021/01/13 00:24:51;;;;;;;11.35;2.17;;;5.60;82.30;;;;;;5093841;28;20032;-61
2021/01/13 00:27:21;;;;;;;7.65;1.65;;;5.50;82.50;;;;;;5093758;28;20128;-61
2021/01/13 00:29:49;;;;;;;4.13;1.52;;;5.50;82.70;;;;;;5093300;28;20016;-61
2021/01/13 00:32:14;;;;;;;4.22;1.55;;;5.50;83.20;;;;;;5093830;28;20035;-62
2021/01/13 00:34:40;;;;;;;4.30;1.13;;;5.40;83.40;;;;;;5093371;28;20499;-61
2021/01/13 00:37:07;;;;;;;3.00;1.38;;;5.40;83.60;;;;;;5092730;28;20115;-61
2021/01/13 00:39:33;;;;;;;8.00;1.83;;;5.30;83.60;;;;;;5093696;28;20032;-61
2021/01/13 00:42:01;;;;;;;5.82;1.27;;;5.40;83.80;;;;;;5093804;28;20027;-61
2021/01/13 00:44:26;;;;;;;9.63;2.20;;;5.40;83.80;;;;;;5092841;28;20425;-61
2021/01/13 00:46:52;;;;;;;2.58;1.05;;;5.40;83.80;;;;;;5093463;28;20032;-61
2021/01/13 00:49:18;;;;;;;6.35;1.40;;;5.40;83.90;;;;;;5093278;28;20024;-61
2021/01/13 00:51:43;;;;;;;1.55;0.95;;;5.40;83.90;;;;;;5092613;28;20028;-61
2021/01/13 00:54:11;;;;;;;11.73;2.65;;;5.50;83.80;;;;;;5093468;28;20022;-61
2021/01/13 00:56:42;;;;;;;6.03;2.00;;;5.50;84.40;;;;;;5093329;28;20035;-59
2021/01/13 00:59:10;;;;;;;5.45;1.20;;;5.50;83.80;;;;;;5092606;28;20020;-59
2021/01/13 01:01:37;;;;;;;14.07;2.10;;;5.50;84.00;;;;;;5093122;28;20475;-59
2021/01/13 01:04:07;;;;;;;8.52;1.73;;;5.50;84.30;;;;;;5093186;28;20031;-59
2021/01/13 01:06:33;;;;;;;7.65;1.83;;;5.40;84.20;;;;;;5092307;28;20067;-59
2021/01/13 01:08:59;;;;;;;5.45;1.15;;;5.50;84.30;;;;;;5093162;28;20036;-59
2021/01/13 01:11:33;;;;;;;14.48;1.90;;;5.50;84.40;;;;;;5092419;28;20040;-59
2021/01/13 01:13:59;;;;;;;7.30;1.77;;;5.50;84.50;;;;;;5092916;28;20028;-59
2021/01/13 01:16:40;;;;;;;7.97;1.30;;;5.50;84.40;;;;;;5093050;28;20043;-59
2021/01/13 01:19:07;;;;;;;2.70;0.85;;;5.50;84.60;;;;;;5091881;28;20028;-59
2021/01/13 01:21:32;;;;;;;4.68;1.15;;;5.50;84.70;;;;;;5093216;28;20059;-59
2021/01/13 01:23:58;;;;;;;5.03;1.08;;;5.50;84.80;;;;;;5092764;28;20043;-59
2021/01/13 01:26:24;;;;;;;1.75;0.75;;;5.50;84.70;;;;;;5092204;28;20043;-59
2021/01/13 01:28:50;;;;;;;1.42;0.82;;;5.50;84.80;;;;;;5092937;28;20048;-59
2021/01/13 01:31:16;;;;;;;7.05;0.90;;;5.50;84.70;;;;;;5092690;28;20085;-59
2021/01/13 01:33:42;;;;;;;1.33;1.08;;;5.50;84.70;;;;;;5092161;28;20052;-59
2021/01/13 01:36:08;;;;;;;8.30;1.27;;;5.50;84.70;;;;;;5092339;28;20484;-59
2021/01/13 01:38:34;;;;;;;4.65;1.33;;;5.50;84.90;;;;;;5092699;28;20032;-60
2021/01/13 01:41:08;;;;;;;6.75;1.80;;;5.50;85.10;;;;;;5091987;28;20115;-59
2021/01/13 01:43:34;;;;;;;6.57;1.83;;;5.40;85.40;;;;;;5092707;28;20040;-59
2021/01/13 01:46:00;;;;;;;2.08;1.17;;;5.40;85.60;;;;;;5092479;28;20028;-59
2021/01/13 01:48:31;;;;;;;3.63;0.80;;;5.40;85.90;;;;;;5092094;28;20777;-59
2021/01/13 01:50:59;;;;;;;7.88;1.27;;;5.30;86.10;;;;;;5092697;28;20078;-59
2021/01/13 01:53:37;;;;;;;4.03;1.13;;;5.30;86.30;;;;;;5092531;28;20490;-59
2021/01/13 01:56:14;;;;;;;0.90;0.82;;;5.30;86.30;;;;;;5092710;28;20024;-59
2021/01/13 01:58:47;;;;;;;3.15;0.93;;;5.40;86.30;;;;;;5092719;28;20028;-59
2021/01/13 02:01:14;;;;;;;3.10;0.90;;;5.40;86.20;;;;;;5091896;28;20139;-59
2021/01/13 02:03:52;;;;;;;3.10;0.98;;;5.40;86.10;;;;;;5092544;28;20036;-59
2021/01/13 02:06:18;;;;;;;13.10;1.85;;;5.40;86.00;;;;;;5092475;28;20127;-59
2021/01/13 02:08:46;;;;;;;6.72;1.95;;;5.40;86.00;;;;;;5091622;28;20042;-59
2021/01/13 02:11:17;;;;;;;6.13;1.63;;;5.50;86.00;;;;;;5092767;28;20036;-59
2021/01/13 02:13:46;;;;;;;4.72;0.98;;;5.50;86.00;;;;;;5092311;28;20047;-59
2021/01/13 02:16:14;;;;;;;6.80;1.40;;;5.50;86.00;;;;;;5091783;28;20016;-59
2021/01/13 02:18:44;;;;;;;4.25;1.23;;;5.50;85.90;;;;;;5092501;28;20032;-59
2021/01/13 02:21:20;;;;;;;6.65;1.48;;;5.50;85.80;;;;;;5092445;28;20031;-59
2021/01/13 02:24:09;;;;;;;3.72;1.48;;;5.50;86.40;;;;;;5092008;28;20024;-59
2021/01/13 02:27:12;;;;;;;10.05;2.13;;;5.50;85.70;;;;;;5092149;28;20126;-59
2021/01/13 02:29:43;;;;;;;2.83;1.30;;;5.50;85.70;;;;;;5091315;28;20379;-59
2021/01/13 02:32:16;;;;;;;3.78;1.27;;;5.50;85.80;;;;;;5094301;28;20032;-59
2021/01/13 02:35:02;;;;;;;6.65;1.58;;;5.50;85.80;;;;;;5095991;28;20066;-59
2021/01/13 02:37:41;;;;;;;4.15;1.50;;;5.50;85.90;;;;;;5095183;28;20040;-59
2021/01/13 02:40:14;;;;;;;5.18;1.73;;;5.40;85.90;;;;;;5095969;28;20047;-59
2021/01/13 02:42:59;;;;;;;5.25;1.67;;;5.40;85.90;;;;;;5095751;28;20024;-58
2021/01/13 02:45:26;;;;;;;7.82;1.52;;;5.40;86.00;;;;;;5095905;28;20503;-58
2021/01/13 02:47:58;;;;;;;5.03;1.52;;;5.40;86.00;;;;;;5095677;28;20046;-59
2021/01/13 02:50:32;;;;;;;7.75;1.67;;;5.30;86.30;;;;;;5095079;28;20032;-59
2021/01/13 02:53:15;;;;;;;10.25;1.67;;;5.30;86.90;;;;;;5095849;28;20047;-59
2021/01/13 02:55:48;;;;;;;8.57;1.02;;;5.30;87.20;;;;;;5095723;28;20498;-59
2021/01/13 02:58:22;;;;;;;8.13;1.83;;;5.30;87.20;;;;;;5094816;28;20089;-59
2021/01/13 03:00:47;;;;;;;9.32;1.73;;;5.30;87.20;;;;;;5095586;28;20473;-59
2021/01/13 03:03:15;;;;;;;4.78;1.20;;;5.30;87.20;;;;;;5095573;28;20048;-59
2021/01/13 03:05:42;;;;;;;5.32;1.40;;;5.40;87.10;;;;;;5094615;28;20084;-59
2021/01/13 03:08:11;;;;;;;6.85;1.35;;;5.40;87.00;;;;;;5095384;28;20093;-59
2021/01/13 03:10:38;;;;;;;4.38;1.25;;;5.40;86.90;;;;;;5095165;28;20459;-59
2021/01/13 03:13:06;;;;;;;9.27;1.38;;;5.50;86.70;;;;;;5094599;28;20028;-59
2021/01/13 03:15:34;;;;;;;1.00;0.60;;;5.50;86.60;;;;;;5095117;28;20110;-59
2021/01/13 03:18:09;;;;;;;2.88;1.02;;;5.50;86.60;;;;;;5105207;28;20027;-59
2021/01/13 03:21:03;;;;;;;9.45;1.38;;;5.50;86.60;;;;;;5109632;28;20387;-59
2021/01/13 03:23:37;;;;;;;0.52;0.52;;;5.50;86.20;;;;;;5095217;28;20039;-59
2021/01/13 03:26:05;;;;;;;11.05;1.40;;;5.50;86.10;;;;;;5101710;28;20051;-59
2021/01/13 03:28:33;;;;;;;3.58;1.30;;;5.50;85.90;;;;;;5101597;28;20032;-58
2021/01/13 03:31:00;;;;;;;5.40;1.10;;;5.50;86.00;;;;;;5095105;28;20016;-59
2021/01/13 03:33:26;;;;;;;5.25;1.58;;;5.50;86.00;;;;;;5094124;28;20036;-59
2021/01/13 03:36:00;;;;;;;4.40;1.65;;;5.50;86.00;;;;;;5108851;28;20040;-58
2021/01/13 03:38:28;;;;;;;10.63;1.52;;;5.50;86.00;;;;;;5094788;28;20044;-59
2021/01/13 03:41:02;;;;;;;5.72;1.40;;;5.50;85.80;;;;;;5094169;28;20051;-59
2021/01/13 03:43:33;;;;;;;;;;;5.50;85.60;;;;;;5094860;28;20036;-59
2021/01/13 03:46:04;;;;;;;8.68;1.45;;;5.60;85.70;;;;;;5094060;28;19912;-59
2021/01/13 03:48:46;;;;;;;1.58;0.98;;;5.60;85.40;;;;;;5095212;28;20063;-59
2021/01/13 03:51:39;;;;;;;0.75;0.75;;;5.60;85.60;;;;;;5098396;28;20398;-58
2021/01/13 03:54:08;;;;;;;3.17;1.25;;;5.60;85.60;;;;;;5101066;28;20035;-58
2021/01/13 03:56:52;;;;;;;7.47;1.25;;;5.60;86.20;;;;;;5110948;28;20020;-60
2021/01/13 03:59:29;;;;;;;9.75;1.75;;;5.60;85.60;;;;;;5110918;28;20418;-60
2021/01/13 04:01:57;;;;;;;7.32;1.98;;;5.60;85.60;;;;;;5111255;28;20088;-59
2021/01/13 04:04:45;;;;;;;9.18;1.58;;;5.60;85.70;;;;;;5113435;28;20470;-61
2021/01/13 04:07:13;;;;;;;3.45;1.13;;;5.60;85.70;;;;;;5110768;28;20447;-60
2021/01/13 04:09:39;;;;;;;2.03;0.93;;;5.70;85.50;;;;;;5107232;28;20031;-60
2021/01/13 04:12:13;;;;;;;1.55;0.60;;;5.70;85.40;;;;;;5105459;28;20032;-60
2021/01/13 04:14:48;;;;;;;5.18;0.90;;;5.80;85.20;;;;;;5107114;28;20035;-60
2021/01/13 04:17:15;;;;;;;11.85;2.25;;;5.80;84.80;;;;;;5105467;28;20039;-60
2021/01/13 04:19:45;;;;;;;4.40;1.23;;;5.80;85.40;;;;;;5108584;28;20110;-60
2021/01/13 04:22:12;;;;;;;5.03;1.52;;;5.80;84.30;;;;;;5103472;28;20058;-60
2021/01/13 04:24:40;;;;;;;11.00;1.60;;;5.70;84.50;;;;;;5109084;28;20026;-60
2021/01/13 04:27:06;;;;;;;9.60;1.40;;;5.70;84.50;;;;;;5108434;28;20513;-60
2021/01/13 04:29:32;;;;;;;9.13;1.80;;;5.70;84.30;;;;;;5093279;28;20028;-60
2021/01/13 04:31:58;;;;;;;9.38;1.23;;;5.70;84.20;;;;;;5093790;28;20501;-60
2021/01/13 04:34:23;;;;;;;2.30;1.10;;;5.80;84.30;;;;;;5093862;28;20050;-60
2021/01/13 04:36:50;;;;;;;9.52;1.45;;;5.80;84.20;;;;;;5092560;28;20081;-60
2021/01/13 04:39:19;;;;;;;1.45;0.70;;;5.80;84.70;;;;;;5093998;28;20028;-60
2021/01/13 04:42:04;;;;;;;8.45;1.70;;;5.80;84.10;;;;;;5093764;28;20426;-59
2021/01/13 04:44:54;;;;;;;7.97;0.90;;;5.80;84.10;;;;;;5092953;28;20410;-60
2021/01/13 04:47:32;;;;;;;3.70;1.08;;;5.80;84.10;;;;;;5079350;28;20044;-60
2021/01/13 04:50:01;;;;;;;7.45;1.42;;;5.80;84.10;;;;;;5093050;28;20084;-60
2021/01/13 04:52:31;;;;;;;6.07;1.17;;;5.70;84.10;;;;;;5093353;28;20111;-60
2021/01/13 04:54:59;;;;;;;12.95;2.15;;;5.80;84.20;;;;;;5092653;28;20360;-60
2021/01/13 04:58:03;;;;;;;10.75;1.30;;;5.80;84.30;;;;;;5092599;28;20024;-60
2021/01/13 05:01:08;;;;;;;7.68;0.95;;;5.80;84.50;;;;;;5078874;28;20529;-61
2021/01/13 05:03:49;;;;;;;8.20;1.80;;;5.80;84.30;;;;;;5069111;28;20032;-60
2021/01/13 05:06:47;;;;;;;7.47;1.33;;;5.90;84.00;;;;;;5093270;28;20085;-60
2021/01/13 05:09:13;;;;;;;9.52;1.48;;;5.90;84.00;;;;;;5093198;28;20044;-60
2021/01/13 05:11:44;;;;;;;2.33;0.73;;;5.90;83.90;;;;;;5092578;28;20026;-60
2021/01/13 05:14:11;;;;;;;12.93;1.40;;;5.80;83.80;;;;;;5092931;28;20481;-60
2021/01/13 05:17:01;;;;;;;3.22;0.95;;;5.80;83.90;;;;;;5093016;28;20498;-61
2021/01/13 05:19:30;;;;;;;8.07;1.23;;;5.80;83.90;;;;;;5092413;28;20039;-60
2021/01/13 05:21:57;;;;;;;2.67;0.68;;;5.80;83.80;;;;;;5093115;28;20038;-60
2021/01/13 05:24:25;;;;;;;3.45;1.35;;;5.90;83.90;;;;;;5092928;28;20038;-60
2021/01/13 05:27:01;;;;;;;5.25;1.13;;;5.80;83.80;;;;;;5106523;28;20042;-60
2021/01/13 05:29:38;;;;;;;0.57;0.57;;;5.80;83.90;;;;;;5092855;28;20028;-60
2021/01/13 05:32:07;;;;;;;0.93;0.60;;;5.80;83.90;;;;;;5092142;28;20032;-60
2021/01/13 05:34:34;;;;;;;3.22;1.25;;;5.70;84.00;;;;;;5092809;28;20025;-60
2021/01/13 05:37:19;;;;;;;3.55;0.80;;;5.70;84.10;;;;;;5092295;28;20048;-59
2021/01/13 05:39:46;;;;;;;12.95;1.38;;;5.70;84.20;;;;;;5092381;28;20032;-60
2021/01/13 05:42:14;;;;;;;9.52;1.27;;;5.70;84.90;;;;;;5092763;28;20035;-60
2021/01/13 05:44:42;;;;;;;2.42;0.60;;;5.60;84.40;;;;;;5092757;28;20035;-60
2021/01/13 05:47:40;;;;;;;0.40;0.40;;;5.70;84.50;;;;;;5091852;28;20089;-60
2021/01/13 05:50:09;;;;;;;2.42;1.00;;;5.60;84.60;;;;;;5078138;28;20129;-60
2021/01/13 05:52:36;;;;;;;2.15;1.00;;;5.60;84.60;;;;;;5092357;28;20105;-60
2021/01/13 05:55:04;;;;;;;4.28;1.10;;;5.60;84.70;;;;;;5092842;28;20066;-60
2021/01/13 05:57:30;;;;;;;1.45;0.93;;;5.60;84.80;;;;;;5092521;28;20027;-60
2021/01/13 05:59:57;;;;;;;7.28;1.45;;;5.60;84.90;;;;;;5091981;28;20728;-60
2021/01/13 06:02:28;;;;;;;12.18;1.25;;;5.60;85.00;;;;;;5092354;28;20035;-60
2021/01/13 06:05:07;;;;;;;11.65;1.33;;;5.60;85.10;;;;;;5092807;28;20077;-60
2021/01/13 06:07:34;;;;;;;5.38;1.15;;;5.50;85.20;;;;;;5098171;28;20127;-59
2021/01/13 06:10:01;;;;;;;1.55;1.05;;;5.40;85.40;;;;;;5098795;28;20032;-59
2021/01/13 06:12:30;;;;;;;4.38;0.95;;;5.50;85.60;;;;;;5100752;28;20036;-59
2021/01/13 06:14:56;;;;;;;1.25;0.70;;;5.50;85.80;;;;;;5097995;28;20024;-60
2021/01/13 06:17:24;;;;;;;4.15;1.13;;;5.40;85.80;;;;;;5098919;28;20104;-60
2021/01/13 06:19:54;;;;;;;3.75;1.70;;;5.40;85.90;;;;;;5100142;28;20051;-60
2021/01/13 06:22:31;;;;;;;4.90;0.80;;;5.50;85.90;;;;;;5097892;28;20032;-59
2021/01/13 06:24:58;;;;;;;7.63;1.48;;;5.50;85.80;;;;;;5101226;28;20390;-61
2021/01/13 06:27:39;;;;;;;3.45;0.88;;;5.50;85.70;;;;;;5109630;28;20040;-58
2021/01/13 06:30:18;;;;;;;1.13;0.80;;;5.50;85.60;;;;;;5095826;28;20107;-59
2021/01/13 06:33:00;;;;;;;13.95;1.35;;;5.50;86.00;;;;;;5105843;28;20035;-59
2021/01/13 06:35:43;;;;;;;5.88;1.13;;;5.50;85.30;;;;;;5108399;28;20051;-60
2021/01/13 06:38:09;;;;;;;7.57;1.42;;;5.50;85.20;;;;;;5112640;28;20020;-59
2021/01/13 06:40:37;;;;;;;7.75;1.98;;;5.50;85.20;;;;;;5111259;27;20078;-59
2021/01/13 06:43:13;;;;;;;11.52;2.22;;;5.50;85.40;;;;;;5109924;28;20415;-59
2021/01/13 06:45:38;;;;;;;7.07;1.75;;;5.50;85.60;;;;;;5110762;28;20028;-59
2021/01/13 06:48:05;;;;;;;10.85;1.73;;;5.40;85.50;;;;;;5111091;28;20131;-60
2021/01/13 06:50:38;;;;;;;5.15;2.00;;;5.50;85.70;;;;;;5110204;28;20020;-59
2021/01/13 06:53:11;;;;;;;10.13;1.52;;;5.50;85.80;;;;;;5099876;28;20039;-60
2021/01/13 06:55:39;;;;;;;10.48;1.92;;;5.50;85.80;;;;;;5107555;28;20030;-60
2021/01/13 06:58:08;;;;;;;6.63;1.55;;;5.50;85.60;;;;;;5112208;28;20114;-59
2021/01/13 07:00:35;;;;;;;10.18;1.65;;;5.50;85.70;;;;;;5113461;28;20118;-59
2021/01/13 07:03:20;;;;;;;7.28;1.02;;;5.60;85.60;;;;;;5111960;28;20061;-59
2021/01/13 07:05:45;;;;;;;9.77;1.98;;;5.50;85.60;;;;;;5112902;28;20497;-59
2021/01/13 07:08:11;;;;;;;5.43;1.40;;;5.60;85.70;;;;;;5111837;28;20032;-59
2021/01/13 07:10:38;;;;;;;2.22;1.10;;;5.60;85.70;;;;;;5111027;28;20517;-58
2021/01/13 07:13:07;;;;;;;8.77;1.60;;;5.50;85.70;;;;;;5109301;28;20046;-59
2021/01/13 07:15:33;;;;;;;12.38;3.10;;;5.50;85.80;;;;;;5112267;28;20073;-59
2021/01/13 07:18:03;;;;;;;11.10;1.75;;;5.50;86.00;;;;;;5110238;28;20027;-59
2021/01/13 07:20:32;;;;;;;9.23;1.10;;;5.50;86.10;;;;;;5111852;28;20422;-59
2021/01/13 07:22:59;;;;;;;5.65;1.77;;;5.40;86.10;;;;;;5111064;28;20493;-59
2021/01/13 07:25:25;;;;;;;10.05;2.15;;;5.40;86.20;;;;;;5111959;28;20043;-59
2021/01/13 07:27:51;;;;;;;4.97;0.73;;;5.40;86.30;;;;;;5111038;28;20038;-59
2021/01/13 07:30:24;;;;;;;2.35;1.15;;;5.40;86.30;;;;;;5109902;27;20023;-60
2021/01/13 07:33:01;;;;;;;2.75;1.20;;;5.50;86.40;;;;;;5109767;28;20146;-59
2021/01/13 07:35:30;;;;;;;6.07;1.50;;;5.40;86.30;;;;;;5111326;28;20040;-60
2021/01/13 07:38:01;;;;;;;18.40;2.42;;;5.40;86.30;;;;;;5112098;28;20024;-59
2021/01/13 07:40:36;;;;;;;2.88;1.50;;;5.50;86.40;;;;;;5108041;28;20108;-60
2021/01/13 07:43:04;;;;;;;4.32;1.48;;;5.40;86.30;;;;;;5110725;28;20039;-61
2021/01/13 07:45:42;;;;;;;5.60;1.70;;;5.50;86.30;;;;;;5109325;28;20055;-61
2021/01/13 07:48:08;;;;;;;9.15;1.98;;;5.40;86.20;;;;;;5112034;28;20073;-61
2021/01/13 07:50:40;;;;;;;7.82;2.13;;;5.50;86.20;;;;;;5111667;28;20059;-61
2021/01/13 07:53:27;;;;;;;14.27;2.30;;;5.50;86.30;;;;;;5110715;28;20031;-61
2021/01/13 07:56:03;;;;;;;15.80;2.25;;;5.40;86.30;;;;;;5099574;28;20111;-61
2021/01/13 07:58:31;;;;;;;12.60;2.28;;;5.40;86.30;;;;;;5107177;28;20024;-61
2021/01/13 08:01:15;;;;;;;7.45;1.70;;;5.30;86.40;;;;;;5108203;28;20029;-62
2021/01/13 08:03:57;;;;;;;10.18;2.35;;;5.30;86.50;;;;;;5108046;28;20047;-61
2021/01/13 08:06:29;;;;;;;10.07;1.80;;;5.30;86.70;;;;;;5108649;28;20040;-61
2021/01/13 08:09:08;;;;;;;7.82;1.88;;;5.20;86.70;;;;;;5112495;28;20090;-61
2021/01/13 08:11:48;;;;;;;9.68;2.03;;;5.20;86.70;;;;;;5111259;28;20020;-61
2021/01/13 08:14:38;;;;;;;13.45;1.63;;;5.30;86.70;;;;;;5108873;28;20024;-61
2021/01/13 08:17:33;;;;;;;18.58;2.42;;;5.20;86.80;;;;;;5110927;28;20027;-59
2021/01/13 08:20:26;;;;;;;11.82;1.70;;;5.20;86.90;;;;;;5110893;28;20338;-59
2021/01/13 08:23:26;;;;;;;4.97;1.65;;;5.20;87.00;;;;;;5104930;28;20523;-58
2021/01/13 08:25:55;;;;;;;11.23;1.83;;;5.20;87.20;;;;;;5101030;28;20031;-59
2021/01/13 08:28:22;;;;;;;9.13;1.67;;;5.20;87.40;;;;;;5096876;28;20475;-59
2021/01/13 08:30:49;;;;;;;11.75;2.67;;;5.10;87.40;;;;;;5097020;28;20024;-58
2021/01/13 08:33:25;;;;;;;5.75;1.17;;;5.10;87.40;;;;;;5110044;28;20078;-59
2021/01/13 08:36:01;;;;;;;8.15;1.92;;;5.20;87.50;;;;;;5107961;28;20130;-59
2021/01/13 08:38:27;;;;;;;9.50;2.60;;;5.20;87.50;;;;;;5110840;28;20466;-59
2021/01/13 08:40:54;;;;;;;10.98;2.47;;;5.10;87.40;;;;;;5109323;28;20156;-59
2021/01/13 08:43:22;;;;;;;8.38;1.60;;;5.10;87.60;;;;;;5099534;28;20116;-58
2021/01/13 08:45:52;;;;;;;8.50;2.35;;;5.00;87.90;;;;;;5093753;28;20482;-58
2021/01/13 08:48:21;;;;;;;9.30;1.83;;;5.00;88.10;;;;;;5093302;28;20040;-58
2021/01/13 08:51:08;;;;;;;9.00;2.00;;;5.00;88.20;;;;;;5094614;28;20024;-58
2021/01/13 08:53:34;;;;;;;12.63;2.58;;;5.10;88.40;;;;;;5094806;28;20437;-58
2021/01/13 08:56:01;;;;;;;2.03;1.30;;;5.10;88.20;;;;;;5106210;28;20034;-58
2021/01/13 08:58:33;;;;;;;7.05;1.20;;;5.10;88.10;;;;;;5109983;28;20161;-58
2021/01/13 09:01:10;;;;;;;4.35;0.95;;;5.20;88.00;;;;;;5100571;28;20024;-58
2021/01/13 09:03:38;;;;;;;1.27;0.95;;;5.20;87.90;;;;;;5091228;28;20028;-58
2021/01/13 09:06:24;;;;;;;2.28;0.63;;;5.20;87.80;;;;;;5097301;28;20039;-59
2021/01/13 09:08:57;;;;;;;1.75;0.75;;;5.20;87.70;;;;;;5095315;28;20119;-59
2021/01/13 09:11:39;;;;;;;4.15;1.08;;;5.20;87.80;;;;;;5098289;28;20058;-59
2021/01/13 09:14:24;;;;;;;7.60;1.30;;;5.20;87.80;;;;;;5099519;28;20123;-60
2021/01/13 09:16:50;;;;;;;4.85;1.10;;;5.20;87.80;;;;;;5093142;28;20024;-58
2021/01/13 09:19:40;;;;;;;6.53;1.92;;;5.20;87.80;;;;;;5105943;28;20467;-59
2021/01/13 09:22:09;;;;;;;6.47;1.63;;;5.20;88.00;;;;;;5093855;28;20036;-59
2021/01/13 09:24:43;;;;;;;5.53;1.50;;;5.20;88.10;;;;;;5106934;28;20069;-59
2021/01/13 09:27:11;;;;;;;6.15;2.20;;;5.20;88.30;;;;;;5106474;28;20036;-59
2021/01/13 09:29:51;;;;;;;11.15;2.28;;;5.20;88.50;;;;;;5092067;28;20028;-59
2021/01/13 09:32:19;;;;;;;8.73;1.88;;;5.20;88.80;;;;;;5091056;28;20127;-59
2021/01/13 09:34:51;;;;;;;5.63;1.55;;;5.20;89.00;;;;;;5099912;28;20020;-59
2021/01/13 09:37:20;;;;;;;7.43;1.42;;;5.10;89.10;;;;;;5104645;27;20048;-61
2021/01/13 09:40:00;;;;;;;12.63;2.22;;;5.20;89.40;;;;;;5096934;28;20026;-59
2021/01/13 09:42:40;;;;;;;13.68;1.60;;;5.20;89.50;;;;;;5102573;28;20032;-59
2021/01/13 09:45:07;;;;;;;16.30;2.33;;;5.20;89.50;;;;;;5096783;28;20028;-59
2021/01/13 09:47:33;;;;;;;8.90;2.22;;;5.20;89.50;;;;;;5097988;28;20047;-59
2021/01/13 09:49:59;;;;;;;12.77;2.70;;;5.30;89.60;;;;;;5100140;28;20031;-59
2021/01/13 09:52:39;;;;;;;5.70;1.48;;;5.30;89.70;;;;;;5106202;28;20059;-59
2021/01/13 09:55:06;;;;;;;10.38;1.92;;;5.30;89.60;;;;;;5109392;28;20024;-59
2021/01/13 09:57:35;;;;;;;6.22;1.88;;;5.40;89.60;;;;;;5107266;28;20040;-59
2021/01/13 10:00:06;;;;;;;15.27;1.95;;;5.40;89.50;;;;;;5108915;28;20416;-59
2021/01/13 10:02:39;;;;;;;5.78;1.45;;;5.50;89.20;;;;;;5104249;28;20055;-60
2021/01/13 10:05:06;;;;;;;5.82;1.17;;;5.60;89.00;;;;;;5109582;28;20027;-59
2021/01/13 10:07:33;;;;;;;5.47;1.40;;;5.60;88.70;;;;;;5107319;28;20039;-60
2021/01/13 10:10:02;;;;;;;4.28;1.15;;;5.70;88.60;;;;;;5107683;28;20107;-60
2021/01/13 10:12:39;;;;;;;5.45;1.30;;;5.70;88.30;;;;;;5109453;28;20126;-60
2021/01/13 10:15:13;;;;;;;5.00;1.60;;;5.80;88.30;;;;;;5101058;28;20032;-59
2021/01/13 10:17:39;;;;;;;;;;;5.80;88.20;;;;;;5102959;28;20074;-60
2021/01/13 10:20:21;;;;;;;5.45;1.15;;;5.80;88.30;;;;;;5107445;28;19912;-60
2021/01/13 10:22:48;;;;;;;11.25;2.08;;;5.70;88.40;;;;;;5096100;28;20538;-60
2021/01/13 10:25:33;;;;;;;8.85;1.40;;;5.70;88.20;;;;;;5107351;28;20039;-59
2021/01/13 10:27:59;;;;;;;5.18;1.02;;;5.70;88.10;;;;;;5098840;28;20047;-59
2021/01/13 10:30:26;;;;;;;5.72;1.08;;;5.80;88.30;;;;;;5090838;28;20028;-59
2021/01/13 10:32:53;;;;;;;1.92;0.93;;;5.80;88.30;;;;;;5090674;28;20050;-59
2021/01/13 10:35:21;;;;;;;2.50;0.90;;;5.80;88.30;;;;;;5090425;28;20048;-60
2021/01/13 10:37:57;;;;;;;7.68;1.35;;;5.80;88.20;;;;;;5091387;28;20032;-60
2021/01/13 10:40:24;;;;;;;6.22;1.13;;;5.80;88.10;;;;;;5091094;28;20056;-59
2021/01/13 10:42:52;;;;;;;10.43;2.03;;;5.90;88.10;;;;;;5090159;28;20032;-59
2021/01/13 10:45:19;;;;;;;5.70;1.23;;;5.90;88.10;;;;;;5091025;28;20028;-59
2021/01/13 10:47:55;;;;;;;4.65;1.90;;;5.90;88.20;;;;;;5090905;28;20036;-59
2021/01/13 10:50:26;;;;;;;8.27;1.50;;;5.90;88.30;;;;;;5090790;28;20063;-59
2021/01/13 10:52:54;;;;;;;10.65;1.58;;;5.90;88.40;;;;;;5092643;28;20035;-59
2021/01/13 10:55:24;;;;;;;9.35;1.48;;;5.90;88.40;;;;;;5094316;28;20024;-59
2021/01/13 10:57:51;;;;;;;3.35;1.25;;;5.90;88.60;;;;;;5103731;28;20671;-60
2021/01/13 11:00:18;;;;;;;5.65;1.30;;;5.80;88.70;;;;;;5102171;28;20032;-63
2021/01/13 11:02:57;;;;;;;14.07;1.45;;;5.90;89.00;;;;;;5104431;28;20051;-66
2021/01/13 11:05:24;;;;;;;13.82;1.92;;;5.90;89.10;;;;;;5112709;28;20031;-59
2021/01/13 11:07:56;;;;;;;8.48;2.03;;;5.90;89.30;;;;;;5111043;28;20036;-59
2021/01/13 11:10:23;;;;;;;14.55;2.72;;;5.90;89.50;;;;;;5114217;28;20074;-59
2021/01/13 11:13:05;;;;;;;4.85;1.17;;;6.00;89.80;;;;;;5102440;28;20043;-59
2021/01/13 11:15:31;;;;;;;5.72;1.42;;;6.00;89.80;;;;;;5094207;28;20025;-59
2021/01/13 11:17:58;;;;;;;7.53;1.90;;;6.00;89.60;;;;;;5093316;28;20107;-59
2021/01/13 11:20:29;;;;;;;9.15;1.30;;;6.10;89.60;;;;;;5094098;28;20031;-59
2021/01/13 11:23:01;;;;;;;10.48;1.70;;;6.10;89.30;;;;;;5094076;28;20245;-59
2021/01/13 11:25:39;;;;;;;6.43;1.67;;;6.20;89.30;;;;;;5098508;28;20027;-59
2021/01/13 11:28:13;;;;;;;7.47;1.23;;;6.30;89.20;;;;;;5101909;28;20043;-59
2021/01/13 11:30:41;;;;;;;15.35;1.90;;;6.30;89.00;;;;;;5093062;28;20048;-59
2021/01/13 11:33:09;;;;;;;11.45;1.98;;;6.30;89.00;;;;;;5094223;28;20088;-59
2021/01/13 11:35:40;;;;;;;7.45;1.38;;;6.40;88.90;;;;;;5093704;28;20044;-59
2021/01/13 11:38:35;;;;;;;15.45;2.08;;;6.40;89.00;;;;;;5093416;28;20085;-59
2021/01/13 11:41:19;;;;;;;13.52;2.47;;;6.50;89.10;;;;;;5105757;28;20039;-59
2021/01/13 11:44:06;;;;;;;9.02;1.65;;;6.50;89.00;;;;;;5112488;28;20065;-61
2021/01/13 11:46:58;;;;;;;20.75;2.67;;;6.50;89.30;;;;;;5112730;28;20039;-66
2021/01/13 11:49:27;;;;;;;18.50;4.40;;;6.50;89.30;;;;;;5112622;28;20038;-59
2021/01/13 11:51:55;;;;;;;9.10;1.35;;;6.60;89.80;;;;;;5110331;28;20031;-59
2021/01/13 11:54:24;;;;;;;17.98;2.22;;;6.60;90.00;;;;;;5104433;28;20382;-60
2021/01/13 11:56:51;;;;;;;18.73;1.95;;;6.50;89.90;;;;;;5100052;28;20034;-59
2021/01/13 11:59:43;;;;;;;5.15;2.00;;;6.60;89.90;;;;;;5105072;28;20066;-59
2021/01/13 12:02:19;;;;;;;6.15;2.25;;;6.60;90.00;;;;;;5101614;28;20039;-62
2021/01/13 12:04:45;;;;;;;4.78;1.15;;;6.60;89.70;;;;;;5108258;28;20111;-59
2021/01/13 12:07:11;;;;;;;9.40;2.13;;;6.60;89.50;;;;;;5106813;28;20035;-59
2021/01/13 12:09:37;;;;;;;3.67;0.80;;;6.70;89.40;;;;;;5110150;28;20024;-59
2021/01/13 12:12:04;;;;;;;5.47;1.20;;;6.70;89.50;;;;;;5112465;28;20027;-59
2021/01/13 12:14:43;;;;;;;12.90;1.92;;;6.70;89.10;;;;;;5111503;28;20363;-59
2021/01/13 12:17:10;;;;;;;6.10;1.42;;;6.70;89.00;;;;;;5110403;28;20466;-59
2021/01/13 12:19:40;;;;;;;8.52;2.13;;;6.80;89.20;;;;;;5107876;28;20558;-59
2021/01/13 12:22:06;;;;;;;13.20;2.25;;;6.80;89.00;;;;;;5110477;28;20051;-59
2021/01/13 12:24:41;;;;;;;18.58;2.63;;;6.80;88.60;;;;;;5109938;28;20059;-59
2021/01/13 12:27:27;;;;;;;9.85;2.08;;;6.90;89.30;;;;;;5109182;28;20437;-59
2021/01/13 12:30:13;;;;;;;16.23;2.00;;;6.90;89.20;;;;;;5110227;28;20043;-58
2021/01/13 12:32:40;;;;;;;5.55;2.22;;;7.00;89.30;;;;;;5108660;28;20129;-58
2021/01/13 12:35:10;;;;;;;13.73;2.53;;;7.00;89.30;;;;;;5110227;28;20118;-59
2021/01/13 12:37:51;;;;;;;8.00;1.55;;;7.00;89.30;;;;;;5100568;28;20384;-59
2021/01/13 12:40:37;;;;;;;11.45;2.03;;;7.10;89.60;;;;;;5110514;28;20024;-66
2021/01/13 12:43:19;;;;;;;10.20;1.85;;;7.10;89.50;;;;;;5109890;28;20040;-59
2021/01/13 12:45:46;;;;;;;14.90;2.70;;;7.20;89.70;;;;;;5108055;28;20468;-60
2021/01/13 12:48:13;;;;;;;14.85;2.40;;;7.30;90.00;;;;;;5111269;27;20101;-59
2021/01/13 12:50:39;;;;;;;5.45;1.48;;;7.30;89.80;;;;;;5110033;28;20019;-59
2021/01/13 12:53:05;;;;;;;8.13;1.95;;;7.30;89.80;;;;;;5110298;28;20023;-59
2021/01/13 12:55:32;;;;;;;9.88;2.17;;;7.20;89.10;;;;;;5109431;28;20506;-65
2021/01/13 12:57:57;;;;;;;9.88;2.03;;;7.30;89.00;;;;;;5103260;28;20047;-68
2021/01/13 13:00:24;;;;;;;5.30;1.40;;;7.30;89.40;;;;;;5107994;28;20080;-60
2021/01/13 13:02:50;;;;;;;8.30;1.70;;;7.30;89.40;;;;;;5104519;28;20073;-60
2021/01/13 13:05:16;;;;;;;6.15;1.42;;;7.30;88.60;;;;;;5110429;28;20038;-60
2021/01/13 13:07:42;;;;;;;10.50;2.13;;;7.30;89.20;;;;;;5108689;28;20040;-58
2021/01/13 13:10:09;;;;;;;13.50;2.47;;;7.40;89.10;;;;;;5111023;28;20532;-59
2021/01/13 13:12:35;;;;;;;9.32;2.05;;;7.40;88.50;;;;;;5107937;28;20031;-60
2021/01/13 13:15:00;;;;;;;16.40;3.08;;;7.40;87.80;;;;;;5106502;28;20019;-59
2021/01/13 13:17:26;;;;;;;9.77;2.40;;;7.40;88.10;;;;;;5104393;28;20081;-60
2021/01/13 13:19:52;;;;;;;8.02;2.00;;;7.40;88.90;;;;;;5106940;28;20429;-59